createdAt,value
2018-03-27T00:00:14.968Z,6.60
2018-03-27T00:02:42.417Z,6.60
2018-03-27T00:05:15.769Z,6.60
2018-03-27T00:07:43.173Z,6.60
2018-03-27T00:10:10.651Z,6.70
2018-03-27T00:12:38.104Z,6.60
2018-03-27T00:15:05.593Z,6.60
2018-03-27T00:17:33.116Z,6.60
2018-03-27T00:20:00.590Z,6.60
2018-03-27T00:22:28.834Z,6.60
2018-03-27T00:24:56.316Z,6.60
2018-03-27T00:27:35.536Z,6.60
2018-03-27T00:30:15.084Z,6.60
2018-03-27T00:32:54.421Z,6.60
2018-03-27T00:35:33.845Z,6.60
2018-03-27T00:38:13.301Z,6.60
2018-03-27T00:40:42.876Z,6.60
2018-03-27T00:43:13.840Z,6.50
2018-03-27T00:45:42.466Z,6.50
2018-03-27T00:48:09.940Z,6.50
2018-03-27T00:50:37.405Z,6.40
2018-03-27T00:53:04.862Z,6.30
2018-03-27T00:55:32.345Z,6.40
2018-03-27T00:57:59.826Z,6.30
2018-03-27T01:00:28.069Z,6.40
2018-03-27T01:02:55.534Z,6.30
2018-03-27T01:05:23.008Z,6.40
2018-03-27T01:07:51.233Z,6.40
2018-03-27T01:10:18.749Z,6.40
2018-03-27T01:12:46.283Z,6.40
2018-03-27T01:15:13.765Z,6.40
2018-03-27T01:17:42.003Z,6.30
2018-03-27T01:20:09.477Z,6.30
2018-03-27T01:22:37.037Z,6.20
2018-03-27T01:25:04.512Z,6.20
2018-03-27T01:27:32.757Z,6.20
2018-03-27T01:30:00.237Z,6.10
2018-03-27T01:32:28.457Z,6.20
2018-03-27T01:34:55.930Z,6.20
2018-03-27T01:37:23.402Z,6.20
2018-03-27T01:39:50.876Z,6.30
2018-03-27T01:42:18.336Z,6.20
2018-03-27T01:44:45.804Z,6.20
2018-03-27T01:47:14.048Z,6.30
2018-03-27T01:49:41.625Z,6.30
2018-03-27T01:52:09.093Z,6.30
2018-03-27T01:54:37.379Z,6.10
2018-03-27T01:57:05.634Z,6.10
2018-03-27T01:59:33.095Z,6.00
2018-03-27T02:02:01.341Z,6.00
2018-03-27T02:04:28.798Z,6.00
2018-03-27T02:06:56.278Z,6.10
2018-03-27T02:09:23.732Z,6.00
2018-03-27T02:11:56.823Z,6.10
2018-03-27T02:14:30.073Z,6.10
2018-03-27T02:17:03.388Z,6.10
2018-03-27T02:19:36.683Z,6.00
2018-03-27T02:22:03.693Z,6.10
2018-03-27T02:24:34.615Z,6.10
2018-03-27T02:27:02.241Z,6.10
2018-03-27T02:29:29.746Z,6.00
2018-03-27T02:31:57.218Z,6.00
2018-03-27T02:34:24.680Z,6.00
2018-03-27T02:36:52.181Z,6.00
2018-03-27T02:39:19.744Z,6.00
2018-03-27T02:41:47.994Z,6.00
2018-03-27T02:44:15.457Z,6.00
2018-03-27T02:46:44.453Z,5.90
2018-03-27T02:49:12.020Z,5.90
2018-03-27T02:51:39.499Z,5.90
2018-03-27T02:54:07.728Z,5.90
2018-03-27T02:56:35.212Z,5.90
2018-03-27T02:59:02.689Z,5.90
2018-03-27T03:01:30.934Z,5.80
2018-03-27T03:03:58.398Z,5.80
2018-03-27T03:06:25.868Z,5.80
2018-03-27T03:08:54.108Z,5.70
2018-03-27T03:11:21.593Z,5.80
2018-03-27T03:13:49.064Z,5.70
2018-03-27T03:16:17.292Z,5.50
2018-03-27T03:18:44.753Z,5.50
2018-03-27T03:21:12.228Z,5.60
2018-03-27T03:23:39.794Z,5.60
2018-03-27T03:26:07.273Z,5.60
2018-03-27T03:28:35.496Z,5.60
2018-03-27T03:31:02.977Z,5.60
2018-03-27T03:33:30.546Z,5.60
2018-03-27T03:35:58.036Z,5.60
2018-03-27T03:38:25.502Z,5.70
2018-03-27T03:40:52.993Z,5.70
2018-03-27T03:43:21.361Z,5.70
2018-03-27T03:45:48.878Z,5.70
2018-03-27T03:48:16.409Z,5.60
2018-03-27T03:50:43.987Z,5.60
2018-03-27T03:53:12.224Z,5.60
2018-03-27T03:55:39.690Z,5.60
2018-03-27T03:58:07.156Z,5.50
2018-03-27T04:00:34.639Z,5.50
2018-03-27T04:03:02.865Z,5.30
2018-03-27T04:05:30.348Z,5.40
2018-03-27T04:07:58.606Z,5.40
2018-03-27T04:10:26.100Z,5.40
2018-03-27T04:12:54.329Z,5.40
2018-03-27T04:15:21.817Z,5.40
2018-03-27T04:17:49.308Z,5.40
2018-03-27T04:20:16.780Z,5.40
2018-03-27T04:22:44.253Z,5.40
2018-03-27T04:25:11.729Z,5.40
2018-03-27T04:27:39.212Z,5.40
2018-03-27T04:30:07.457Z,5.40
2018-03-27T04:32:35.188Z,5.40
2018-03-27T04:35:02.741Z,5.40
2018-03-27T04:37:30.224Z,5.50
2018-03-27T04:39:57.713Z,5.40
2018-03-27T04:42:26.826Z,5.30
2018-03-27T04:44:55.039Z,5.30
2018-03-27T04:47:22.570Z,5.30
2018-03-27T04:49:50.807Z,5.20
2018-03-27T04:52:18.374Z,5.10
2018-03-27T04:54:45.836Z,5.10
2018-03-27T04:57:13.320Z,5.10
2018-03-27T04:59:40.794Z,5.10
2018-03-27T05:02:08.265Z,5.10
2018-03-27T05:04:35.772Z,5.10
2018-03-27T05:07:04.020Z,5.10
2018-03-27T05:09:31.484Z,5.10
2018-03-27T05:11:58.996Z,5.20
2018-03-27T05:14:26.476Z,5.20
2018-03-27T05:16:53.945Z,5.10
2018-03-27T05:19:21.471Z,5.10
2018-03-27T05:21:48.956Z,5.10
2018-03-27T05:24:16.426Z,5.00
2018-03-27T05:26:43.915Z,5.10
2018-03-27T05:29:12.144Z,5.20
2018-03-27T05:31:39.637Z,5.10
2018-03-27T05:34:07.127Z,5.20
2018-03-27T05:36:34.638Z,5.20
2018-03-27T05:39:03.150Z,5.10
2018-03-27T05:41:31.396Z,5.00
2018-03-27T05:43:58.865Z,5.00
2018-03-27T05:46:26.334Z,5.00
2018-03-27T05:48:54.863Z,5.00
2018-03-27T05:51:22.363Z,5.00
2018-03-27T05:53:49.978Z,5.00
2018-03-27T05:56:17.742Z,5.00
2018-03-27T05:58:45.391Z,4.90
2018-03-27T06:01:12.997Z,4.90
2018-03-27T06:03:41.645Z,5.00
2018-03-27T06:06:09.912Z,5.10
2018-03-27T06:08:37.414Z,5.00
2018-03-27T06:11:04.914Z,5.10
2018-03-27T06:13:32.388Z,5.10
2018-03-27T06:15:59.865Z,5.10
2018-03-27T06:18:27.388Z,5.10
2018-03-27T06:20:54.945Z,5.10
2018-03-27T06:23:22.928Z,5.10
2018-03-27T06:25:50.542Z,5.20
2018-03-27T06:28:18.340Z,5.20
2018-03-27T06:30:46.029Z,5.30
2018-03-27T06:33:13.521Z,5.40
2018-03-27T06:35:41.223Z,5.40
2018-03-27T06:38:08.698Z,5.40
2018-03-27T06:40:36.924Z,5.50
2018-03-27T06:43:04.458Z,5.50
2018-03-27T06:45:32.021Z,5.50
2018-03-27T06:47:59.485Z,5.50
2018-03-27T06:50:26.982Z,5.60
2018-03-27T06:52:54.493Z,5.70
2018-03-27T06:55:22.044Z,5.70
2018-03-27T06:57:49.525Z,5.80
2018-03-27T07:00:16.992Z,5.80
2018-03-27T07:02:44.474Z,5.80
2018-03-27T07:05:12.727Z,5.90
2018-03-27T07:07:40.211Z,5.90
2018-03-27T07:10:07.722Z,5.90
2018-03-27T07:12:36.088Z,6.10
2018-03-27T07:15:03.623Z,6.10
2018-03-27T07:17:31.120Z,6.20
2018-03-27T07:19:58.600Z,6.30
2018-03-27T07:22:26.224Z,6.40
2018-03-27T07:24:55.216Z,6.50
2018-03-27T07:27:22.696Z,6.50
2018-03-27T07:29:50.937Z,6.60
2018-03-27T07:32:18.396Z,6.60
2018-03-27T07:34:45.896Z,6.50
2018-03-27T07:37:13.388Z,6.60
2018-03-27T07:39:42.818Z,6.60
2018-03-27T07:42:11.067Z,6.60
2018-03-27T07:44:38.617Z,6.60
2018-03-27T07:47:06.086Z,6.70
2018-03-27T07:49:33.587Z,6.70
2018-03-27T07:52:01.058Z,6.80
2018-03-27T07:54:28.554Z,6.80
2018-03-27T07:56:56.844Z,7.00
2018-03-27T07:59:24.430Z,7.00
2018-03-27T08:01:52.875Z,7.10
2018-03-27T08:04:20.365Z,7.10
2018-03-27T08:06:47.930Z,7.10
2018-03-27T08:09:15.424Z,7.10
2018-03-27T08:11:42.884Z,7.10
2018-03-27T08:14:10.370Z,7.10
2018-03-27T08:16:38.622Z,7.10
2018-03-27T08:19:06.108Z,7.00
2018-03-27T08:21:34.338Z,7.20
2018-03-27T08:24:01.945Z,7.20
2018-03-27T08:26:29.377Z,7.30
2018-03-27T08:28:56.834Z,7.30
2018-03-27T08:31:24.316Z,7.40
2018-03-27T08:33:52.536Z,7.50
2018-03-27T08:36:20.040Z,7.50
2018-03-27T08:38:47.540Z,7.50
2018-03-27T08:41:15.044Z,7.50
2018-03-27T08:43:42.530Z,7.50
2018-03-27T08:46:10.608Z,7.50
2018-03-27T08:48:38.182Z,7.60
2018-03-27T08:51:05.658Z,7.60
2018-03-27T08:53:33.129Z,7.80
2018-03-27T08:56:00.652Z,7.80
2018-03-27T08:58:28.181Z,7.90
2018-03-27T09:00:56.413Z,8.20
2018-03-27T09:03:23.943Z,8.10
2018-03-27T09:05:51.397Z,8.40
2018-03-27T09:08:18.884Z,8.60
2018-03-27T09:10:46.341Z,8.60
2018-03-27T09:13:13.829Z,8.70
2018-03-27T09:15:41.318Z,8.90
2018-03-27T09:18:08.796Z,9.00
2018-03-27T09:20:36.263Z,9.10
2018-03-27T09:23:03.757Z,9.20
2018-03-27T09:25:31.217Z,9.20
2018-03-27T09:27:58.704Z,9.40
2018-03-27T09:30:26.165Z,9.40
2018-03-27T09:32:53.693Z,9.40
2018-03-27T09:35:22.008Z,9.60
2018-03-27T09:37:49.499Z,9.60
2018-03-27T09:40:16.990Z,9.70
2018-03-27T09:42:45.257Z,9.70
2018-03-27T09:45:12.808Z,9.80
2018-03-27T09:47:40.286Z,9.80
2018-03-27T09:50:08.569Z,10.00
2018-03-27T09:52:36.926Z,10.10
2018-03-27T09:55:04.398Z,10.10
2018-03-27T09:57:32.656Z,10.20
2018-03-27T10:00:00.133Z,10.10
2018-03-27T10:02:28.381Z,10.10
2018-03-27T10:04:55.845Z,10.10
2018-03-27T10:07:23.329Z,10.10
2018-03-27T10:09:51.584Z,10.30
2018-03-27T10:12:19.108Z,10.30
2018-03-27T10:14:46.579Z,10.40
2018-03-27T10:17:14.156Z,10.40
2018-03-27T10:19:41.638Z,10.50
2018-03-27T10:22:09.911Z,10.50
2018-03-27T10:24:38.141Z,10.50
2018-03-27T10:27:05.762Z,10.50
2018-03-27T10:29:33.225Z,10.50
2018-03-27T10:32:01.507Z,10.60
2018-03-27T10:34:29.033Z,10.60
2018-03-27T10:36:57.310Z,10.50
2018-03-27T10:39:24.843Z,10.40
2018-03-27T10:41:53.132Z,10.50
2018-03-27T10:44:21.729Z,10.50
2018-03-27T10:46:49.214Z,10.40
2018-03-27T10:49:16.725Z,10.40
2018-03-27T10:51:44.260Z,10.40
2018-03-27T10:54:11.717Z,10.50
2018-03-27T10:56:39.220Z,10.50
2018-03-27T10:59:06.716Z,10.50
2018-03-27T11:01:34.236Z,10.50
2018-03-27T11:04:02.604Z,10.80
2018-03-27T11:06:30.851Z,10.80
2018-03-27T11:08:58.340Z,10.80
2018-03-27T11:11:26.612Z,10.70
2018-03-27T11:13:54.869Z,10.70
2018-03-27T11:16:22.335Z,10.70
2018-03-27T11:18:49.818Z,10.70
2018-03-27T11:21:17.292Z,10.60
2018-03-27T11:23:44.813Z,10.50
2018-03-27T11:26:13.196Z,10.30
2018-03-27T11:28:41.469Z,10.30
2018-03-27T11:31:08.925Z,10.30
2018-03-27T11:33:36.589Z,10.40
2018-03-27T11:36:04.141Z,10.40
2018-03-27T11:38:31.621Z,10.50
2018-03-27T11:40:59.857Z,10.60
2018-03-27T11:43:27.365Z,10.60
2018-03-27T11:45:54.833Z,10.70
2018-03-27T11:48:22.327Z,10.70
2018-03-27T11:50:49.788Z,10.80
2018-03-27T11:53:17.272Z,10.80
2018-03-27T11:55:45.505Z,11.00
2018-03-27T11:58:12.991Z,10.90
2018-03-27T12:00:40.495Z,11.10
2018-03-27T12:03:08.925Z,11.20
2018-03-27T12:05:36.394Z,11.30
2018-03-27T12:08:03.896Z,11.40
2018-03-27T12:10:31.377Z,11.40
2018-03-27T12:12:58.870Z,11.50
2018-03-27T12:15:27.133Z,11.70
2018-03-27T12:17:54.613Z,11.70
2018-03-27T12:20:22.879Z,11.60
2018-03-27T12:22:51.137Z,11.80
2018-03-27T12:25:18.755Z,11.70
2018-03-27T12:27:46.233Z,11.90
2018-03-27T12:30:13.709Z,12.00
2018-03-27T12:32:41.189Z,11.90
2018-03-27T12:35:09.431Z,12.00
2018-03-27T12:37:36.900Z,12.00
2018-03-27T12:40:04.376Z,12.20
2018-03-27T12:42:32.613Z,12.30
2018-03-27T12:45:00.101Z,12.20
2018-03-27T12:47:28.389Z,11.80
2018-03-27T12:49:56.639Z,11.80
2018-03-27T12:52:24.108Z,11.70
2018-03-27T12:54:51.597Z,11.70
2018-03-27T12:57:19.128Z,11.80
2018-03-27T12:59:47.380Z,11.80
2018-03-27T13:02:14.855Z,11.70
2018-03-27T13:04:42.345Z,11.80
2018-03-27T13:07:09.821Z,11.90
2018-03-27T13:09:37.309Z,11.90
2018-03-27T13:12:04.781Z,12.00
2018-03-27T13:14:32.394Z,12.00
2018-03-27T13:16:59.882Z,12.00
2018-03-27T13:19:27.360Z,11.90
2018-03-27T13:21:54.930Z,11.80
2018-03-27T13:24:23.176Z,11.50
2018-03-27T13:26:50.649Z,11.50
2018-03-27T13:29:19.037Z,11.40
2018-03-27T13:31:47.287Z,11.40
2018-03-27T13:34:14.765Z,11.40
2018-03-27T13:36:42.231Z,11.30
2018-03-27T13:39:10.501Z,11.20
2018-03-27T13:41:37.974Z,11.20
2018-03-27T13:44:06.274Z,11.30
2018-03-27T13:46:33.799Z,11.20
2018-03-27T13:49:02.110Z,11.30
2018-03-27T13:51:29.596Z,11.30
2018-03-27T13:53:57.092Z,11.20
2018-03-27T13:56:24.652Z,11.10
2018-03-27T13:58:52.904Z,11.10
2018-03-27T14:01:20.378Z,11.10
2018-03-27T14:03:47.935Z,11.10
2018-03-27T14:06:15.424Z,11.00
2018-03-27T14:08:42.908Z,11.00
2018-03-27T14:11:10.410Z,10.70
2018-03-27T14:13:37.904Z,10.60
2018-03-27T14:16:05.430Z,10.50
2018-03-27T14:18:33.698Z,10.40
2018-03-27T14:21:01.258Z,10.40
2018-03-27T14:23:28.842Z,10.30
2018-03-27T14:25:56.329Z,10.40
2018-03-27T14:28:23.835Z,10.50
2018-03-27T14:30:51.323Z,10.50
2018-03-27T14:33:19.505Z,10.60
2018-03-27T14:35:47.003Z,10.60
2018-03-27T14:38:14.541Z,10.70
2018-03-27T14:40:42.000Z,10.70
2018-03-27T14:43:09.469Z,10.70
2018-03-27T14:45:36.957Z,10.60
2018-03-27T14:48:04.422Z,10.70
2018-03-27T14:50:32.690Z,10.70
2018-03-27T14:53:00.942Z,10.70
2018-03-27T14:55:29.274Z,10.70
2018-03-27T14:57:56.748Z,10.70
2018-03-27T15:00:24.761Z,10.70
2018-03-27T15:02:53.762Z,10.80
2018-03-27T15:05:22.012Z,10.80
2018-03-27T15:07:50.404Z,10.80
2018-03-27T15:10:18.238Z,10.80
2018-03-27T15:12:45.704Z,10.80
2018-03-27T15:15:13.234Z,10.90
2018-03-27T15:17:40.752Z,10.80
2018-03-27T15:20:08.229Z,10.90
2018-03-27T15:22:36.492Z,10.90
2018-03-27T15:25:05.461Z,11.00
2018-03-27T15:27:32.953Z,11.00
2018-03-27T15:30:01.203Z,11.00
2018-03-27T15:32:29.469Z,11.00
2018-03-27T15:34:57.995Z,11.00
2018-03-27T15:37:25.484Z,11.00
2018-03-27T15:39:53.783Z,11.10
2018-03-27T15:42:21.268Z,11.10
2018-03-27T15:44:48.742Z,10.90
2018-03-27T15:47:16.230Z,10.70
2018-03-27T15:49:44.465Z,10.60
2018-03-27T15:52:11.952Z,10.60
2018-03-27T15:54:39.408Z,10.50
2018-03-27T15:57:06.908Z,10.40
2018-03-27T15:59:34.376Z,10.40
2018-03-27T16:02:01.932Z,10.40
2018-03-27T16:04:29.378Z,10.40
2018-03-27T16:06:56.871Z,10.40
2018-03-27T16:09:24.457Z,10.30
2018-03-27T16:11:51.942Z,10.30
2018-03-27T16:14:19.415Z,10.30
2018-03-27T16:16:46.916Z,10.20
2018-03-27T16:19:14.429Z,10.20
2018-03-27T16:21:41.917Z,10.20
2018-03-27T16:24:09.385Z,10.30
2018-03-27T16:26:36.900Z,10.20
2018-03-27T16:29:04.369Z,10.30
2018-03-27T16:31:31.850Z,10.30
2018-03-27T16:33:59.335Z,10.20
2018-03-27T16:36:26.833Z,10.20
2018-03-27T16:38:54.316Z,10.00
2018-03-27T16:41:21.901Z,10.00
2018-03-27T16:43:49.384Z,9.90
2018-03-27T16:46:17.684Z,9.80
2018-03-27T16:48:45.153Z,9.80
2018-03-27T16:51:12.647Z,9.80
2018-03-27T16:53:40.155Z,9.70
2018-03-27T16:56:07.686Z,9.70
2018-03-27T16:58:35.105Z,9.80
2018-03-27T17:01:02.737Z,9.70
2018-03-27T17:03:30.289Z,9.70
2018-03-27T17:05:57.783Z,9.70
2018-03-27T17:08:25.260Z,9.60
2018-03-27T17:10:52.730Z,9.50
2018-03-27T17:13:20.988Z,9.40
2018-03-27T17:15:48.438Z,9.40
2018-03-27T17:18:15.925Z,9.40
2018-03-27T17:20:44.153Z,9.40
2018-03-27T17:23:11.638Z,9.40
2018-03-27T17:25:39.231Z,9.40
2018-03-27T17:28:06.706Z,9.40
2018-03-27T17:30:34.213Z,9.30
2018-03-27T17:33:01.821Z,9.30
2018-03-27T17:35:29.281Z,9.20
2018-03-27T17:37:56.772Z,9.20
2018-03-27T17:40:24.245Z,9.10
2018-03-27T17:42:51.862Z,9.10
2018-03-27T17:45:19.355Z,9.10
2018-03-27T17:47:46.832Z,9.10
2018-03-27T17:50:15.086Z,8.90
2018-03-27T17:52:43.341Z,8.90
2018-03-27T17:55:11.742Z,8.90
2018-03-27T17:57:39.224Z,8.90
2018-03-27T18:00:07.474Z,8.90
2018-03-27T18:02:35.004Z,8.80
2018-03-27T18:05:02.465Z,8.80
2018-03-27T18:07:29.956Z,8.70
2018-03-27T18:09:57.414Z,8.70
2018-03-27T18:12:24.897Z,8.70
2018-03-27T18:14:53.168Z,8.50
2018-03-27T18:17:20.636Z,8.50
2018-03-27T18:19:48.209Z,8.60
2018-03-27T18:22:15.726Z,8.60
2018-03-27T18:24:43.288Z,8.60
2018-03-27T18:27:10.783Z,8.50
2018-03-27T18:29:38.315Z,8.40
2018-03-27T18:32:06.568Z,8.40
2018-03-27T18:34:34.066Z,8.40
2018-03-27T18:37:01.554Z,8.40
2018-03-27T18:39:29.028Z,8.40
2018-03-27T18:41:56.507Z,8.40
2018-03-27T18:44:23.972Z,8.50
2018-03-27T18:46:52.221Z,8.40
2018-03-27T18:49:19.698Z,8.40
2018-03-27T18:51:47.976Z,8.40
2018-03-27T18:54:15.530Z,8.50
2018-03-27T18:56:43.071Z,8.30
2018-03-27T18:59:10.630Z,8.30
2018-03-27T19:01:38.897Z,8.30
2018-03-27T19:04:06.392Z,8.30
2018-03-27T19:06:34.629Z,8.20
2018-03-27T19:09:02.225Z,8.20
2018-03-27T19:11:30.494Z,8.20
2018-03-27T19:13:58.069Z,8.20
2018-03-27T19:16:26.490Z,8.20
2018-03-27T19:18:53.975Z,8.20
2018-03-27T19:21:21.457Z,8.20
2018-03-27T19:23:49.725Z,8.10
2018-03-27T19:26:17.201Z,8.10
2018-03-27T19:28:45.454Z,8.10
2018-03-27T19:31:12.920Z,8.10
2018-03-27T19:33:40.409Z,8.00
2018-03-27T19:36:07.874Z,8.00
2018-03-27T19:38:35.363Z,8.00
2018-03-27T19:41:02.833Z,8.00
2018-03-27T19:43:31.118Z,7.90
2018-03-27T19:45:58.928Z,7.90
2018-03-27T19:48:26.421Z,7.90
2018-03-27T19:50:53.907Z,7.90
2018-03-27T19:53:22.319Z,7.90
2018-03-27T19:55:49.812Z,7.90
2018-03-27T19:58:17.400Z,7.90
2018-03-27T20:00:45.641Z,7.90
2018-03-27T20:03:13.132Z,7.80
2018-03-27T20:05:41.353Z,7.80
2018-03-27T20:08:08.928Z,7.80
2018-03-27T20:10:36.400Z,7.80
2018-03-27T20:13:03.909Z,7.80
2018-03-27T20:15:41.702Z,7.80
2018-03-27T20:17:58.906Z,7.80
2018-03-27T20:20:28.129Z,7.80
2018-03-27T20:22:55.637Z,7.80
2018-03-27T20:25:23.096Z,7.80
2018-03-27T20:27:50.569Z,7.70
2018-03-27T20:30:18.972Z,7.70
2018-03-27T20:32:46.508Z,7.60
2018-03-27T20:35:14.782Z,7.60
2018-03-27T20:37:42.495Z,7.60
2018-03-27T20:40:09.969Z,7.50
2018-03-27T20:42:37.577Z,7.60
2018-03-27T20:45:05.828Z,7.60
2018-03-27T20:47:33.303Z,7.60
2018-03-27T20:50:01.534Z,7.50
2018-03-27T20:52:29.031Z,7.50
2018-03-27T20:54:57.278Z,7.50
2018-03-27T20:57:25.056Z,7.50
2018-03-27T20:59:52.574Z,7.50
2018-03-27T21:02:20.188Z,7.50
2018-03-27T21:04:47.657Z,7.60
2018-03-27T21:07:15.176Z,7.50
2018-03-27T21:09:42.684Z,7.50
2018-03-27T21:12:10.952Z,7.50
2018-03-27T21:14:38.429Z,7.50
2018-03-27T21:17:06.662Z,7.40
2018-03-27T21:19:34.145Z,7.30
2018-03-27T21:22:01.604Z,7.40
2018-03-27T21:24:29.884Z,7.40
2018-03-27T21:26:58.161Z,7.40
2018-03-27T21:29:25.671Z,7.30
2018-03-27T21:31:53.218Z,7.30
2018-03-27T21:34:20.697Z,7.40
2018-03-27T21:36:48.182Z,7.40
2018-03-27T21:39:15.691Z,7.40
2018-03-27T21:41:43.149Z,7.40
2018-03-27T21:44:10.727Z,7.30
2018-03-27T21:46:38.189Z,7.30
2018-03-27T21:49:05.677Z,7.20
2018-03-27T21:51:33.146Z,7.30
2018-03-27T21:54:01.401Z,7.30
2018-03-27T21:56:28.872Z,7.30
2018-03-27T21:58:56.371Z,7.40
2018-03-27T22:01:23.911Z,7.30
2018-03-27T22:03:52.309Z,7.30
2018-03-27T22:06:25.746Z,7.30
2018-03-27T22:08:53.266Z,7.30
2018-03-27T22:11:20.790Z,7.30
2018-03-27T22:13:49.051Z,7.30
2018-03-27T22:16:16.616Z,7.30
2018-03-27T22:18:44.100Z,7.30
2018-03-27T22:21:11.574Z,7.30
2018-03-27T22:23:39.078Z,7.30
2018-03-27T22:26:06.553Z,7.30
2018-03-27T22:28:34.863Z,7.30
2018-03-27T22:31:02.340Z,7.30
2018-03-27T22:33:29.850Z,7.30
2018-03-27T22:35:57.314Z,7.30
2018-03-27T22:38:25.561Z,7.20
2018-03-27T22:40:53.030Z,7.20
2018-03-27T22:43:20.511Z,7.20
2018-03-27T22:45:48.737Z,7.20
2018-03-27T22:48:16.212Z,7.20
2018-03-27T22:50:43.681Z,7.30
2018-03-27T22:53:11.924Z,7.20
2018-03-27T22:55:39.389Z,7.20
2018-03-27T22:58:06.876Z,7.20
2018-03-27T23:00:35.109Z,7.20
2018-03-27T23:03:02.603Z,7.20
2018-03-27T23:05:30.889Z,7.20
2018-03-27T23:07:59.953Z,7.30
2018-03-27T23:10:27.409Z,7.30
2018-03-27T23:12:54.901Z,7.20
2018-03-27T23:15:23.138Z,7.20
2018-03-27T23:17:50.627Z,7.20
2018-03-27T23:20:18.867Z,7.20
2018-03-27T23:22:46.393Z,7.20
2018-03-27T23:25:13.857Z,7.20
2018-03-27T23:27:41.326Z,7.20
2018-03-27T23:30:08.809Z,7.20
2018-03-27T23:32:36.270Z,7.20
2018-03-27T23:35:03.877Z,7.20
2018-03-27T23:37:31.435Z,7.30
2018-03-27T23:39:58.915Z,7.30
2018-03-27T23:42:26.382Z,7.30
2018-03-27T23:44:53.886Z,7.30
2018-03-27T23:47:22.133Z,7.30
2018-03-27T23:49:49.638Z,7.30
2018-03-27T23:52:17.121Z,7.30
2018-03-27T23:54:44.617Z,7.20
2018-03-27T23:57:12.093Z,7.30
2018-03-27T23:59:40.389Z,7.30
